Time;durP1;ratioP1;P1;durP2;ratioP2;P2;SDS_P1;SDS_P2;PMS_P1;PMS_P2;Temp;Humidity;BMP_temperature;BMP_pressure;BME280_temperature;BME280_humidity;BME280_pressure;Samples;Min_cycle;Max_cycle;Signal;HPM_P1;HPM_P2
2021/06/27 00:00:42;;;;;;;7.20;2.45;;;;;;;12.25;100.00;100346.97;6287743;22;20030;-45
2021/06/27 00:03:53;;;;;;;3.15;1.38;;;;;;;12.36;100.00;100355.59;6286997;22;20030;-45
2021/06/27 00:06:57;;;;;;;2.03;0.93;;;;;;;12.39;100.00;100346.28;6285554;22;20019;-45
2021/06/27 00:10:01;;;;;;;1.00;0.65;;;;;;;12.37;100.00;100345.97;6286996;22;20027;-45
2021/06/27 00:13:05;;;;;;;4.65;1.05;;;;;;;12.34;100.00;100346.94;6260755;22;20030;-45
2021/06/27 00:16:09;;;;;;;1.85;0.95;;;;;;;12.28;100.00;100327.25;6286636;22;20023;-44
2021/06/27 00:19:14;;;;;;;1.83;1.33;;;;;;;12.25;100.00;100333.78;6287360;22;20325;-45
2021/06/27 00:22:17;;;;;;;1.23;0.82;;;;;;;12.12;100.00;100334.03;6286750;22;20022;-45
2021/06/27 00:25:24;;;;;;;5.80;1.65;;;;;;;12.08;100.00;100347.38;6287385;22;20038;-45
2021/06/27 00:28:27;;;;;;;1.48;1.13;;;;;;;12.11;100.00;100340.06;6286537;22;20023;-45
2021/06/27 00:31:31;;;;;;;4.63;1.30;;;;;;;12.07;100.00;100331.09;6286804;22;20043;-45
2021/06/27 00:34:35;;;;;;;4.47;1.13;;;;;;;11.97;100.00;100324.81;6286876;22;20038;-45
2021/06/27 00:37:39;;;;;;;1.60;1.40;;;;;;;11.94;100.00;100330.56;6287202;22;20027;-45
2021/06/27 00:40:43;;;;;;;1.88;0.70;;;;;;;11.89;100.00;100336.81;6286656;22;20038;-45
2021/06/27 00:43:48;;;;;;;3.50;1.48;;;;;;;11.92;100.00;100342.22;6287280;22;20023;-45
2021/06/27 00:46:53;;;;;;;2.58;1.58;;;;;;;11.91;100.00;100332.28;6286846;22;20018;-45
2021/06/27 00:49:57;;;;;;;3.67;1.35;;;;;;;11.82;100.00;100328.78;6286883;22;20022;-45
2021/06/27 00:53:01;;;;;;;5.18;1.73;;;;;;;11.70;100.00;100338.88;6286463;22;20027;-45
2021/06/27 00:56:05;;;;;;;2.45;0.82;;;;;;;11.57;100.00;100327.13;6286776;22;20027;-45
2021/06/27 00:59:08;;;;;;;5.18;2.35;;;;;;;11.48;100.00;100326.41;6286888;22;20043;-45
2021/06/27 01:02:12;;;;;;;4.03;1.67;;;;;;;11.36;100.00;100322.56;6287123;22;20062;-44
2021/06/27 01:05:21;;;;;;;4.85;1.33;;;;;;;11.26;100.00;100324.59;6286357;22;20451;-45
2021/06/27 01:08:25;;;;;;;2.97;1.42;;;;;;;11.15;100.00;100320.78;6286939;22;20027;-45
2021/06/27 01:11:30;;;;;;;3.30;1.50;;;;;;;11.10;100.00;100313.03;6279148;22;20027;-45
2021/06/27 01:14:34;;;;;;;2.85;0.68;;;;;;;11.15;100.00;100315.19;6287010;22;20050;-44
2021/06/27 01:17:39;;;;;;;2.55;1.52;;;;;;;11.09;100.00;100317.03;6286146;22;20023;-45
2021/06/27 01:20:43;;;;;;;5.80;2.00;;;;;;;11.00;100.00;100319.88;6286875;22;20022;-45
2021/06/27 01:23:47;;;;;;;1.77;0.73;;;;;;;11.08;100.00;100321.88;6286571;22;20027;-45
2021/06/27 01:26:50;;;;;;;1.58;0.95;;;;;;;11.10;100.00;100324.19;6286414;22;20022;-45
2021/06/27 01:29:54;;;;;;;2.85;1.42;;;;;;;11.16;100.00;100333.44;6286198;22;20027;-45
2021/06/27 01:33:00;;;;;;;4.75;1.80;;;;;;;11.27;100.00;100322.59;6286696;22;20451;-45
2021/06/27 01:36:04;;;;;;;2.88;0.95;;;;;;;11.30;100.00;100327.97;6286473;22;20018;-45
2021/06/27 01:39:08;;;;;;;3.63;1.23;;;;;;;11.22;100.00;100321.19;6286569;22;20707;-44
2021/06/27 01:42:12;;;;;;;2.90;1.52;;;;;;;11.20;100.00;100322.91;6285985;22;20026;-45
2021/06/27 01:45:21;;;;;;;5.22;1.55;;;;;;;11.22;100.00;100320.41;6286636;22;20026;-44
2021/06/27 01:48:25;;;;;;;6.18;1.50;;;;;;;11.14;100.00;100316.41;6286451;22;20066;-45
2021/06/27 01:51:29;;;;;;;1.85;1.17;;;;;;;11.08;100.00;100315.50;6286459;22;20023;-45
2021/06/27 01:54:32;;;;;;;1.92;0.90;;;;;;;10.98;100.00;100316.78;6285691;22;20463;-45
2021/06/27 01:57:36;;;;;;;1.98;0.82;;;;;;;10.88;100.00;100315.22;6286302;22;20027;-45
2021/06/27 02:00:39;;;;;;;1.40;1.02;;;;;;;10.83;100.00;100313.09;6285945;22;20026;-45
2021/06/27 02:03:44;;;;;;;4.53;1.42;;;;;;;10.76;100.00;100313.41;6286277;22;20030;-44
2021/06/27 02:06:47;;;;;;;2.42;1.38;;;;;;;10.77;100.00;100306.56;6285382;22;20348;-45
2021/06/27 02:09:51;;;;;;;2.97;0.88;;;;;;;10.95;100.00;100290.63;6285802;22;20027;-45
2021/06/27 02:12:57;;;;;;;3.38;0.82;;;;;;;10.97;100.00;100293.72;6278831;22;20046;-45
2021/06/27 02:16:00;;;;;;;2.28;0.98;;;;;;;11.01;100.00;100287.97;6286512;22;20034;-44
2021/06/27 02:19:04;;;;;;;1.23;0.88;;;;;;;10.91;100.00;100286.44;6285200;22;20042;-48
2021/06/27 02:22:08;;;;;;;1.13;0.80;;;;;;;10.78;100.00;100285.84;6286008;22;20023;-44
2021/06/27 02:25:12;;;;;;;1.77;0.88;;;;;;;10.79;100.00;100288.16;6285896;22;20026;-45
2021/06/27 02:28:15;;;;;;;3.55;1.45;;;;;;;10.81;100.00;100284.91;6273533;22;20026;-44
2021/06/27 02:31:19;;;;;;;5.90;1.27;;;;;;;10.78;100.00;100277.50;6285395;22;20019;-45
2021/06/27 02:34:23;;;;;;;7.43;0.88;;;;;;;10.71;100.00;100275.00;6286276;22;20027;-45
2021/06/27 02:37:26;;;;;;;2.03;0.80;;;;;;;10.66;100.00;100270.84;6285869;22;20022;-45
2021/06/27 02:40:30;;;;;;;1.00;0.30;;;;;;;10.63;100.00;100264.19;6286165;22;20027;-45
2021/06/27 02:43:33;;;;;;;0.40;0.22;;;;;;;10.54;100.00;100261.44;6285834;22;20026;-44
2021/06/27 02:46:38;;;;;;;0.80;0.52;;;;;;;10.47;100.00;100258.94;6285982;22;20015;-44
2021/06/27 02:49:41;;;;;;;1.10;0.47;;;;;;;10.48;100.00;100254.91;6286140;22;20027;-45
2021/06/27 02:52:45;;;;;;;2.67;1.05;;;;;;;10.43;100.00;100258.34;6286051;22;20026;-45
2021/06/27 02:55:48;;;;;;;0.95;0.47;;;;;;;10.40;100.00;100255.69;6285572;22;20043;-45
2021/06/27 02:58:51;;;;;;;2.25;0.50;;;;;;;10.56;100.00;100258.16;6285973;22;20023;-44
2021/06/27 03:01:55;;;;;;;1.67;0.75;;;;;;;10.68;100.00;100253.69;6285963;22;20031;-44
2021/06/27 03:04:58;;;;;;;1.77;0.80;;;;;;;10.93;100.00;100250.53;6285944;22;20039;-44
2021/06/27 03:08:01;;;;;;;0.82;0.30;;;;;;;10.98;100.00;100249.91;6285196;22;20050;-45
2021/06/27 03:11:05;;;;;;;3.85;0.50;;;;;;;11.03;100.00;100246.47;6285909;22;20026;-45
2021/06/27 03:14:08;;;;;;;6.97;0.47;;;;;;;11.03;100.00;100246.47;6285907;22;20031;-45
2021/06/27 03:17:12;;;;;;;2.17;0.80;;;;;;;10.96;100.00;100242.00;6285720;22;20023;-45
2021/06/27 03:20:16;;;;;;;3.67;1.08;;;;;;;10.91;100.00;100244.66;6285585;22;20030;-45
2021/06/27 03:23:20;;;;;;;1.65;0.47;;;;;;;10.84;100.00;100239.41;6285660;22;20026;-45
2021/06/27 03:26:26;;;;;;;1.58;0.90;;;;;;;10.84;100.00;100240.19;6285785;22;20022;-45
2021/06/27 03:29:29;;;;;;;1.00;0.90;;;;;;;10.89;100.00;100235.97;6285557;22;20475;-45
2021/06/27 03:32:33;;;;;;;1.88;1.00;;;;;;;10.86;100.00;100231.34;6285499;22;20448;-45
2021/06/27 03:35:37;;;;;;;1.33;0.90;;;;;;;10.83;100.00;100227.47;6285722;22;20340;-45
2021/06/27 03:38:47;;;;;;;2.13;0.63;;;;;;;10.82;100.00;100230.72;6285510;22;20022;-45
2021/06/27 03:41:54;;;;;;;2.85;1.58;;;;;;;10.81;100.00;100234.75;6286342;22;20038;-44
2021/06/27 03:44:57;;;;;;;3.95;1.20;;;;;;;10.83;100.00;100237.88;6287310;22;20026;-44
2021/06/27 03:48:01;;;;;;;1.63;0.65;;;;;;;10.79;100.00;100226.88;6287428;22;20023;-45
2021/06/27 03:51:05;;;;;;;3.65;1.02;;;;;;;10.81;100.00;100218.03;6287274;22;20026;-45
2021/06/27 03:54:09;;;;;;;0.60;0.57;;;;;;;10.76;100.00;100221.47;6287424;22;20510;-45
2021/06/27 03:57:13;;;;;;;2.55;1.20;;;;;;;10.74;100.00;100223.94;6286922;22;20023;-45
2021/06/27 04:00:17;;;;;;;1.02;0.52;;;;;;;10.71;100.00;100227.66;6287461;22;20026;-44
2021/06/27 04:03:21;;;;;;;0.77;0.57;;;;;;;10.74;100.00;100221.16;6287641;22;20345;-45
2021/06/27 04:06:25;;;;;;;3.67;1.02;;;;;;;10.92;100.00;100229.47;6286844;22;20077;-45
2021/06/27 04:09:28;;;;;;;0.65;0.60;;;;;;;11.03;100.00;100232.53;6286793;22;20022;-45
2021/06/27 04:12:31;;;;;;;1.48;0.25;;;;;;;11.14;100.00;100230.78;6281602;22;20506;-45
2021/06/27 04:15:35;;;;;;;5.00;1.15;;;;;;;11.33;100.00;100235.03;6287297;22;20030;-45
2021/06/27 04:18:40;;;;;;;1.60;0.30;;;;;;;11.52;100.00;100227.34;6286563;22;20022;-45
2021/06/27 04:21:43;;;;;;;1.48;0.70;;;;;;;11.69;100.00;100236.91;6286834;22;20444;-44
2021/06/27 04:24:47;;;;;;;1.90;0.73;;;;;;;11.78;100.00;100239.63;6286973;22;20043;-45
2021/06/27 04:27:50;;;;;;;0.50;0.50;;;;;;;11.81;100.00;100232.34;6287276;22;20024;-45
2021/06/27 04:30:54;;;;;;;1.02;0.55;;;;;;;11.93;100.00;100239.72;6286474;22;20026;-45
2021/06/27 04:33:57;;;;;;;3.13;0.57;;;;;;;12.00;100.00;100231.75;6286480;22;20022;-44
2021/06/27 04:37:01;;;;;;;0.95;0.60;;;;;;;12.11;100.00;100229.19;6286725;22;20058;-45
2021/06/27 04:40:05;;;;;;;1.15;0.68;;;;;;;12.24;100.00;100239.31;6287167;22;20046;-45
2021/06/27 04:43:09;;;;;;;1.60;0.40;;;;;;;12.34;100.00;100235.22;6286998;22;20042;-45
2021/06/27 04:46:12;;;;;;;2.67;0.90;;;;;;;12.38;100.00;100230.22;6286778;22;20022;-45
2021/06/27 04:49:15;;;;;;;4.15;1.00;;;;;;;12.44;100.00;100233.88;6287070;22;20026;-45
2021/06/27 04:52:19;;;;;;;2.42;0.95;;;;;;;12.52;100.00;100237.81;6268254;22;20034;-45
2021/06/27 04:55:22;;;;;;;2.13;0.95;;;;;;;12.58;100.00;100241.53;6286730;22;20027;-45
2021/06/27 04:58:27;;;;;;;2.58;1.02;;;;;;;12.66;100.00;100246.25;6286560;22;20023;-45
2021/06/27 05:01:30;;;;;;;0.60;0.60;;;;;;;12.75;100.00;100232.19;6286752;22;20042;-45
2021/06/27 05:04:34;;;;;;;4.40;1.00;;;;;;;12.84;100.00;100222.94;6285887;22;20042;-45
2021/06/27 05:07:38;;;;;;;2.75;1.10;;;;;;;12.93;100.00;100225.63;6286478;22;20340;-45
2021/06/27 05:10:41;;;;;;;3.03;1.02;;;;;;;12.98;100.00;100233.34;6267611;22;20022;-45
2021/06/27 05:13:46;;;;;;;1.05;0.60;;;;;;;13.03;100.00;100231.88;6286689;22;20042;-45
2021/06/27 05:16:49;;;;;;;3.80;1.02;;;;;;;13.14;100.00;100230.09;6286619;22;20019;-45
2021/06/27 05:19:53;;;;;;;2.80;1.23;;;;;;;13.38;100.00;100222.31;6286652;22;20106;-45
2021/06/27 05:22:56;;;;;;;1.95;1.15;;;;;;;13.54;100.00;100219.00;6285385;22;20022;-45
2021/06/27 05:26:00;;;;;;;2.67;1.02;;;;;;;13.76;100.00;100218.53;6286518;22;20019;-45
2021/06/27 05:29:05;;;;;;;2.80;1.38;;;;;;;14.01;100.00;100217.06;6286678;22;20110;-45
2021/06/27 05:32:09;;;;;;;3.72;1.17;;;;;;;14.20;100.00;100207.13;6286369;22;20026;-45
2021/06/27 05:35:12;;;;;;;2.35;1.20;;;;;;;14.40;100.00;100198.72;6286242;22;20026;-45
2021/06/27 05:38:16;;;;;;;4.70;1.55;;;;;;;14.53;100.00;100196.28;6286434;22;20031;-45
2021/06/27 05:41:19;;;;;;;1.27;0.88;;;;;;;14.72;100.00;100202.34;6286506;22;20038;-45
2021/06/27 05:44:22;;;;;;;5.38;1.30;;;;;;;14.76;100.00;100198.06;6285133;22;20018;-45
2021/06/27 05:47:25;;;;;;;5.03;0.75;;;;;;;14.69;100.00;100201.28;6267388;22;20019;-45
2021/06/27 05:50:28;;;;;;;3.10;0.70;;;;;;;14.62;100.00;100198.94;6286444;22;20047;-45
2021/06/27 05:53:32;;;;;;;0.82;0.25;;;;;;;14.53;100.00;100207.50;6286466;22;20682;-44
2021/06/27 05:56:36;;;;;;;1.88;0.75;;;;;;;14.56;100.00;100198.09;6286000;22;20023;-45
2021/06/27 05:59:40;;;;;;;1.80;0.73;;;;;;;14.49;100.00;100200.59;6278719;22;20022;-45
2021/06/27 06:02:43;;;;;;;1.95;1.08;;;;;;;14.37;100.00;100194.09;6267435;22;20030;-45
2021/06/27 06:05:47;;;;;;;1.98;0.98;;;;;;;14.26;100.00;100188.34;6285829;22;20027;-45
2021/06/27 06:08:50;;;;;;;3.30;0.98;;;;;;;14.17;100.00;100206.06;6286246;22;20033;-45
2021/06/27 06:11:54;;;;;;;3.38;0.90;;;;;;;14.18;100.00;100202.03;6283116;22;20034;-45
2021/06/27 06:14:57;;;;;;;1.15;0.68;;;;;;;14.21;100.00;100205.84;6285910;22;20026;-45
2021/06/27 06:18:01;;;;;;;4.05;0.85;;;;;;;14.23;100.00;100206.13;6286159;22;20046;-45
2021/06/27 06:21:04;;;;;;;3.70;1.05;;;;;;;14.23;100.00;100208.91;6286163;22;20023;-45
2021/06/27 06:24:07;;;;;;;1.50;0.50;;;;;;;14.26;100.00;100211.53;6284879;22;20031;-45
2021/06/27 06:27:12;;;;;;;2.50;1.38;;;;;;;14.26;100.00;100210.75;6285917;22;20463;-45
2021/06/27 06:30:16;;;;;;;3.35;1.90;;;;;;;14.23;100.00;100208.91;6286385;22;20042;-45
2021/06/27 06:33:20;;;;;;;1.65;0.75;;;;;;;14.21;100.00;100203.81;6286019;22;20027;-44
2021/06/27 06:36:23;;;;;;;5.32;1.02;;;;;;;14.19;100.00;100205.56;6285587;22;20030;-44
2021/06/27 06:39:26;;;;;;;3.17;1.20;;;;;;;14.19;100.00;100209.16;6267069;22;20452;-44
2021/06/27 06:42:30;;;;;;;2.50;1.27;;;;;;;14.19;100.00;100205.56;6285675;22;20018;-45
2021/06/27 06:45:34;;;;;;;6.47;1.80;;;;;;;14.17;100.00;100208.09;6285719;22;20344;-45
2021/06/27 06:48:38;;;;;;;3.83;1.52;;;;;;;14.16;100.00;100212.16;6285750;22;20324;-44
2021/06/27 06:51:42;;;;;;;4.25;1.27;;;;;;;14.18;100.00;100210.41;6286140;22;20031;-44
2021/06/27 06:54:45;;;;;;;2.22;1.05;;;;;;;14.30;100.00;100211.31;6286205;22;20333;-44
2021/06/27 06:57:49;;;;;;;5.10;1.17;;;;;;;14.44;100.00;100216.09;6284821;22;20027;-44
2021/06/27 07:00:52;;;;;;;5.65;1.85;;;;;;;14.52;100.00;100213.59;6285365;22;20463;-45
2021/06/27 07:03:56;;;;;;;4.25;1.52;;;;;;;14.67;100.00;100217.84;6285847;22;20023;-44
2021/06/27 07:07:00;;;;;;;3.17;1.60;;;;;;;14.83;100.00;100214.44;6284813;22;20042;-44
2021/06/27 07:10:05;;;;;;;3.97;0.95;;;;;;;14.90;100.00;100225.19;6286075;22;20022;-44
2021/06/27 07:13:08;;;;;;;3.55;1.52;;;;;;;14.85;100.00;100231.53;6276921;22;20463;-44
2021/06/27 07:16:11;;;;;;;1.55;0.70;;;;;;;14.86;100.00;100224.66;6286056;22;20023;-44
2021/06/27 07:19:15;;;;;;;1.58;0.65;;;;;;;15.03;100.00;100217.16;6287394;22;20026;-45
2021/06/27 07:22:18;;;;;;;0.93;0.75;;;;;;;15.11;100.00;100215.44;6288051;22;20431;-44
2021/06/27 07:25:21;;;;;;;5.45;1.15;;;;;;;15.22;100.00;100205.56;6287212;22;20026;-44
2021/06/27 07:28:25;;;;;;;2.70;1.40;;;;;;;15.30;100.00;100203.84;6287981;22;20059;-44
2021/06/27 07:31:28;;;;;;;0.85;0.50;;;;;;;15.31;100.00;100205.38;6287610;22;20038;-44
2021/06/27 07:34:33;;;;;;;3.30;0.77;;;;;;;15.23;100.00;100205.06;6287894;22;20022;-45
2021/06/27 07:37:36;;;;;;;1.92;0.95;;;;;;;15.14;100.00;100220.03;6286743;22;20030;-44
2021/06/27 07:40:40;;;;;;;3.47;0.68;;;;;;;15.07;100.00;100217.69;6287750;22;20046;-44
2021/06/27 07:43:44;;;;;;;4.65;1.05;;;;;;;15.04;100.00;100223.53;6287601;22;20023;-45
2021/06/27 07:46:48;;;;;;;3.55;1.35;;;;;;;15.01;100.00;100214.06;6286686;22;20026;-44
2021/06/27 07:49:51;;;;;;;2.63;0.90;;;;;;;14.99;100.00;100222.22;6287058;22;20019;-44
2021/06/27 07:52:54;;;;;;;6.95;1.60;;;;;;;15.04;100.00;100217.91;6287365;22;20026;-44
2021/06/27 07:55:58;;;;;;;2.97;0.80;;;;;;;15.08;100.00;100212.84;6268349;22;20038;-44
2021/06/27 07:59:01;;;;;;;6.45;1.52;;;;;;;15.09;100.00;100212.34;6287270;22;20023;-45
2021/06/27 08:02:05;;;;;;;5.35;1.90;;;;;;;15.30;100.00;100206.63;6287064;22;20022;-44
2021/06/27 08:05:09;;;;;;;7.30;1.55;;;;;;;15.44;100.00;100205.75;6287682;22;20018;-45
2021/06/27 08:08:15;;;;;;;2.78;0.77;;;;;;;15.82;100.00;100202.41;6287195;22;20015;-44
2021/06/27 08:11:19;;;;;;;4.03;1.35;;;;;;;15.91;100.00;100208.59;6287248;22;20459;-45
2021/06/27 08:14:22;;;;;;;4.30;2.13;;;;;;;15.79;100.00;100201.34;6286763;22;20046;-45
2021/06/27 08:17:26;;;;;;;2.67;1.00;;;;;;;15.65;100.00;100204.34;6287351;22;20023;-45
2021/06/27 08:20:29;;;;;;;3.05;0.75;;;;;;;15.52;100.00;100201.22;6286932;22;20023;-44
2021/06/27 08:23:33;;;;;;;4.88;1.23;;;;;;;15.45;100.00;100210.09;6287598;22;20023;-44
2021/06/27 08:26:36;;;;;;;3.22;0.80;;;;;;;15.42;100.00;100206.22;6286744;22;20475;-45
2021/06/27 08:29:40;;;;;;;3.25;1.52;;;;;;;15.47;100.00;100204.75;6286942;22;20039;-44
2021/06/27 08:32:44;;;;;;;1.70;1.15;;;;;;;15.55;100.00;100194.59;6287295;22;20019;-45
2021/06/27 08:35:47;;;;;;;3.78;1.38;;;;;;;15.63;100.00;100196.44;6287455;22;20371;-44
2021/06/27 08:38:51;;;;;;;6.22;1.35;;;;;;;15.92;100.00;100184.03;6286689;22;20337;-45
2021/06/27 08:41:56;;;;;;;3.08;1.27;;;;;;;16.27;100.00;100164.75;6287297;22;20447;-44
2021/06/27 08:44:59;;;;;;;1.55;0.82;;;;;;;16.52;100.00;100161.00;6286345;22;20030;-45
2021/06/27 08:48:03;;;;;;;1.63;0.63;;;;;;;16.73;100.00;100158.72;6286509;22;20455;-45
2021/06/27 08:51:08;;;;;;;4.05;0.82;;;;;;;16.98;100.00;100166.13;6285783;22;20475;-44
2021/06/27 08:54:12;;;;;;;1.10;0.30;;;;;;;17.40;100.00;100159.44;6286799;22;20022;-45
2021/06/27 08:57:17;;;;;;;2.30;1.02;;;;;;;17.66;100.00;100159.13;6285145;22;20023;-45
2021/06/27 09:00:20;;;;;;;2.15;0.95;;;;;;;17.76;100.00;100155.50;6286592;22;20026;-45
2021/06/27 09:03:23;;;;;;;4.95;1.33;;;;;;;17.65;100.00;100152.72;6286327;22;20027;-44
2021/06/27 09:06:39;;;;;;;6.28;1.38;;;;;;;17.40;100.00;100163.03;6286758;22;20067;-45
2021/06/27 09:09:42;;;;;;;3.17;1.17;;;;;;;17.18;100.00;100165.88;6286600;22;20543;-44
2021/06/27 09:12:58;;;;;;;4.93;1.60;;;;;;;17.21;100.00;100166.91;6280552;22;20030;-44
2021/06/27 09:16:01;;;;;;;3.45;1.02;;;;;;;17.13;100.00;100158.19;6286203;22;20026;-44
2021/06/27 09:19:04;;;;;;;3.28;1.50;;;;;;;17.06;100.00;100155.16;6286746;22;20329;-45
2021/06/27 09:22:11;;;;;;;4.82;1.15;;;;;;;16.93;100.00;100152.84;6286596;22;20030;-45
2021/06/27 09:25:20;;;;;;;7.40;1.25;;;;;;;16.80;100.00;100151.81;6286828;22;20093;-44
2021/06/27 09:28:23;;;;;;;7.55;1.63;;;;;;;16.72;100.00;100160.00;6286045;22;20022;-45
2021/06/27 09:31:43;;;;;;;9.20;1.98;;;;;;;16.73;100.00;100146.72;6286831;22;20026;-44
2021/06/27 09:34:47;;;;;;;5.43;1.88;;;;;;;16.49;100.00;100147.94;6286477;22;20023;-44
2021/06/27 09:37:50;;;;;;;3.30;1.27;;;;;;;16.34;100.00;100150.22;6286624;22;20345;-44
2021/06/27 09:41:00;;;;;;;6.38;1.85;;;;;;;16.28;100.00;100152.25;6286014;22;20427;-44
2021/06/27 09:44:08;;;;;;;7.45;1.13;;;;;;;16.43;100.00;100147.19;6286745;22;20026;-44
2021/06/27 09:47:12;;;;;;;9.25;2.78;;;;;;;16.47;100.00;100139.25;6286293;22;20038;-44
2021/06/27 09:50:30;;;;;;;5.60;1.58;;;;;;;16.44;100.00;100129.00;6286580;22;20329;-44
2021/06/27 09:53:38;;;;;;;5.35;0.75;;;;;;;16.43;100.00;100133.13;6285602;22;20030;-44
2021/06/27 09:56:43;;;;;;;3.05;1.67;;;;;;;16.34;100.00;100124.91;6286360;22;20022;-44
2021/06/27 09:59:46;;;;;;;3.20;1.10;;;;;;;16.49;100.00;100119.81;6286189;22;20023;-44
2021/06/27 10:03:04;;;;;;;2.03;0.77;;;;;;;16.91;100.00;100109.63;6286428;22;20042;-44
2021/06/27 10:06:08;;;;;;;4.22;1.65;;;;;;;17.26;100.00;100119.03;6285995;22;20022;-44
2021/06/27 10:09:20;;;;;;;2.72;1.15;;;;;;;17.29;100.00;100117.22;6286376;22;20023;-44
2021/06/27 10:12:35;;;;;;;3.97;1.10;;;;;;;17.18;100.00;100120.06;6280996;22;20031;-44
2021/06/27 10:15:45;;;;;;;2.28;1.00;;;;;;;17.07;100.00;100117.28;6285972;22;20027;-44
2021/06/27 10:18:50;;;;;;;3.72;0.98;;;;;;;17.01;100.00;100117.28;6286173;22;20332;-44
2021/06/27 10:21:58;;;;;;;3.20;1.00;;;;;;;16.97;100.00;100118.81;6286312;22;20451;-44
2021/06/27 10:25:05;;;;;;;2.20;0.80;;;;;;;16.93;100.00;100118.31;6285797;22;20046;-44
2021/06/27 10:28:09;;;;;;;3.72;0.95;;;;;;;16.83;100.00;100125.50;6285635;22;20031;-44
2021/06/27 10:31:13;;;;;;;8.13;1.35;;;;;;;16.67;100.00;100119.34;6285519;22;20022;-44
2021/06/27 10:34:18;;;;;;;5.80;1.35;;;;;;;16.57;100.00;100126.50;6286248;22;20424;-44
2021/06/27 10:37:36;;;;;;;4.20;1.13;;;;;;;16.46;100.00;100134.13;6285527;22;20340;-44
2021/06/27 10:40:54;;;;;;;5.88;1.95;;;;;;;16.46;100.00;100137.72;6285879;22;20444;-44
2021/06/27 10:44:00;;;;;;;4.05;2.38;;;;;;;16.54;100.00;100133.16;6285755;22;20459;-44
2021/06/27 10:47:04;;;;;;;5.85;1.85;;;;;;;16.53;100.00;100131.63;6285983;22;20019;-44
2021/06/27 10:50:10;;;;;;;4.10;1.42;;;;;;;16.72;100.00;100148.00;6285984;22;20015;-44
2021/06/27 10:53:15;;;;;;;6.57;2.38;;;;;;;16.85;100.00;100131.38;6285329;22;20022;-44
2021/06/27 10:56:49;;;;;;;7.65;2.08;;;;;;;16.87;100.00;100137.25;6285427;22;20023;-45
2021/06/27 10:59:54;;;;;;;6.53;1.30;;;;;;;16.71;100.00;100135.19;6285610;22;20062;-44
2021/06/27 11:03:37;;;;;;;4.35;1.33;;;;;;;16.67;100.00;100124.22;6285693;22;20023;-44
2021/06/27 11:06:41;;;;;;;4.88;2.22;;;;;;;16.91;100.00;100121.66;6266903;22;20023;-52
2021/06/27 11:09:45;;;;;;;2.60;1.05;;;;;;;17.08;100.00;100118.81;6286112;22;20340;-51
2021/06/27 11:13:01;;;;;;;3.35;1.42;;;;;;;17.28;100.00;100118.53;6279337;22;20126;-51
2021/06/27 11:16:06;;;;;;;9.40;2.28;;;;;;;17.37;100.00;100126.66;6286049;22;20416;-52
2021/06/27 11:19:25;;;;;;;2.67;1.27;;;;;;;17.35;100.00;100117.97;6285025;22;20023;-50
2021/06/27 11:22:29;;;;;;;5.38;1.88;;;;;;;17.33;100.00;100114.91;6285813;22;20031;-50
2021/06/27 11:25:37;;;;;;;9.20;2.35;;;;;;;17.29;100.00;100115.19;6285592;22;20430;-49
2021/06/27 11:28:40;;;;;;;7.57;2.20;;;;;;;17.33;100.00;100112.09;6285800;22;20015;-51
2021/06/27 11:31:44;;;;;;;6.85;2.10;;;;;;;17.26;100.00;100121.84;6285685;22;20026;-51
2021/06/27 11:34:55;;;;;;;7.85;2.15;;;;;;;17.19;100.00;100127.25;6285731;22;20031;-51
2021/06/27 11:37:58;;;;;;;6.22;1.88;;;;;;;17.17;100.00;100121.38;6285390;22;20022;-51
2021/06/27 11:41:04;;;;;;;3.20;1.50;;;;;;;17.19;100.00;100124.44;6285789;22;20050;-51
2021/06/27 11:44:11;;;;;;;8.77;1.98;;;;;;;17.29;100.00;100120.03;6285615;22;20026;-50
2021/06/27 11:47:22;;;;;;;4.32;2.00;;;;;;;17.23;100.00;100117.25;6285792;22;20101;-51
2021/06/27 11:50:29;;;;;;;6.07;1.95;;;;;;;17.14;100.00;100114.72;6285650;22;20026;-50
2021/06/27 11:53:32;;;;;;;4.28;2.15;;;;;;;17.10;100.00;100116.25;6285706;22;20027;-52
2021/06/27 11:57:00;;;;;;;5.00;2.08;;;;;;;17.09;100.00;100103.44;6285258;22;20451;-51
2021/06/27 12:00:06;;;;;;;5.85;2.10;;;;;;;17.10;100.00;100110.63;6285719;22;20027;-51
2021/06/27 12:03:12;;;;;;;9.85;2.03;;;;;;;17.20;100.00;100103.44;6285567;22;20475;-51
2021/06/27 12:06:16;;;;;;;5.90;2.38;;;;;;;17.41;100.00;100096.22;6287127;22;20019;-51
2021/06/27 12:09:35;;;;;;;6.10;2.08;;;;;;;17.75;100.00;100094.06;6287260;22;20015;-51
2021/06/27 12:12:45;;;;;;;8.82;2.42;;;;;;;17.99;100.00;100097.78;6281680;22;20340;-51
2021/06/27 12:15:53;;;;;;;4.10;1.10;;;;;;;18.18;100.00;100090.25;6287198;22;20042;-51
2021/06/27 12:18:58;;;;;;;1.58;0.70;;;;;;;18.08;100.00;100094.63;6286928;22;20022;-51
2021/06/27 12:22:02;;;;;;;7.10;1.48;;;;;;;17.98;100.00;100093.44;6287335;22;20026;-51
2021/06/27 12:25:07;;;;;;;2.00;0.70;;;;;;;18.10;100.00;100083.59;6287377;22;20019;-51
2021/06/27 12:28:29;;;;;;;7.22;1.42;;;;;;;17.85;100.00;100084.00;6286514;22;20027;-52
2021/06/27 12:31:32;;;;;;;4.90;1.90;;;;;;;17.62;100.00;100082.59;6286560;22;20026;-51
2021/06/27 12:34:37;;;;;;;2.80;1.33;;;;;;;17.50;100.00;100081.88;6286878;22;20474;-51
2021/06/27 12:37:40;;;;;;;3.47;1.15;;;;;;;17.49;100.00;100076.72;6287150;22;20023;-51
2021/06/27 12:40:50;;;;;;;3.38;1.05;;;;;;;17.58;100.00;100077.25;6286870;22;20027;-50
2021/06/27 12:44:04;;;;;;;5.70;1.42;;;;;;;17.61;100.00;100076.19;6286803;22;20027;-51
2021/06/27 12:47:09;;;;;;;4.13;1.38;;;;;;;17.83;100.00;100069.69;6286765;22;20027;-50
2021/06/27 12:50:13;;;;;;;8.30;1.73;;;;;;;18.17;100.00;100066.13;6286613;22;20019;-50
2021/06/27 12:53:17;;;;;;;5.10;1.85;;;;;;;18.35;100.00;100063.97;6286215;22;20040;-51
2021/06/27 12:56:20;;;;;;;4.05;1.70;;;;;;;18.43;100.00;100070.59;6286334;22;20022;-50
2021/06/27 12:59:36;;;;;;;7.07;2.05;;;;;;;18.23;100.00;100059.72;6286361;22;20027;-51
2021/06/27 13:02:39;;;;;;;6.65;2.17;;;;;;;18.05;100.00;100059.06;6286926;22;20019;-50
2021/06/27 13:05:56;;;;;;;7.05;1.70;;;;;;;17.84;100.00;100060.72;6286735;22;20027;-50
2021/06/27 13:09:15;;;;;;;8.10;1.83;;;;;;;17.74;100.00;100050.25;6286502;22;20023;-51
2021/06/27 13:12:20;;;;;;;3.85;1.67;;;;;;;17.58;100.00;100065.97;6286388;22;20047;-51
2021/06/27 13:15:44;;;;;;;7.18;1.38;;;;;;;17.46;100.00;100053.19;6286690;22;20030;-51
2021/06/27 13:18:48;;;;;;;6.90;1.35;;;;;;;17.32;100.00;100066.31;6286047;22;20026;-50
2021/06/27 13:22:09;;;;;;;2.70;1.02;;;;;;;17.20;100.00;100061.22;6285694;22;20023;-50
2021/06/27 13:25:12;;;;;;;4.88;1.35;;;;;;;17.18;100.00;100055.34;6286250;22;20050;-49
2021/06/27 13:28:24;;;;;;;5.68;1.65;;;;;;;17.16;100.00;100052.28;6285654;22;20022;-51
2021/06/27 13:31:28;;;;;;;3.03;0.93;;;;;;;17.11;100.00;100064.28;6286832;22;20026;-51
2021/06/27 13:34:32;;;;;;;4.75;1.30;;;;;;;16.99;100.00;100071.25;6304030;22;20027;-50
2021/06/27 13:37:54;;;;;;;4.15;1.35;;;;;;;16.94;100.00;100064.34;6286660;22;20023;-49
2021/06/27 13:40:59;;;;;;;3.95;0.73;;;;;;;16.90;100.00;100063.06;6286646;22;20022;-48
2021/06/27 13:44:04;;;;;;;7.90;2.03;;;;;;;16.87;100.00;100070.50;6286050;22;20054;-50
2021/06/27 13:47:08;;;;;;;4.57;1.13;;;;;;;16.87;100.00;100064.88;6286749;22;20022;-47
2021/06/27 13:50:12;;;;;;;3.28;1.63;;;;;;;16.88;100.00;100066.41;6286454;22;20475;-45
2021/06/27 13:53:16;;;;;;;2.55;0.88;;;;;;;16.97;100.00;100071.00;6286546;22;20042;-47
2021/06/27 13:56:20;;;;;;;4.55;2.15;;;;;;;17.04;100.00;100059.22;6285967;22;20022;-49
2021/06/27 13:59:24;;;;;;;5.10;1.35;;;;;;;17.10;100.00;100059.97;6286331;22;20023;-48
2021/06/27 14:02:27;;;;;;;5.05;1.35;;;;;;;17.16;100.00;100063.53;6286456;22;20022;-48
2021/06/27 14:05:30;;;;;;;4.45;1.10;;;;;;;17.29;100.00;100067.34;6286531;22;20042;-50
2021/06/27 14:08:34;;;;;;;3.70;1.08;;;;;;;17.37;100.00;100067.53;6286232;22;20026;-48
2021/06/27 14:11:37;;;;;;;3.28;1.15;;;;;;;17.43;100.00;100060.63;6283935;22;20035;-47